sensor_id;sensor_type;location;lat;lon;timestamp;P1;durP1;ratioP1;P2;durP2;ratioP2
12228;SDS011;6177;52.402;9.800;2023-06-14T00:00:31;2.30;;;2.10;;
12228;SDS011;6177;52.402;9.800;2023-06-14T00:03:22;4.03;;;1.95;;
12228;SDS011;6177;52.402;9.800;2023-06-14T00:06:14;2.67;;;2.35;;
12228;SDS011;6177;52.402;9.800;2023-06-14T00:09:06;3.80;;;1.70;;
12228;SDS011;6177;52.402;9.800;2023-06-14T00:11:59;2.47;;;2.15;;
12228;SDS011;6177;52.402;9.800;2023-06-14T00:14:50;1.67;;;1.67;;
12228;SDS011;6177;52.402;9.800;2023-06-14T00:17:41;1.98;;;1.88;;
12228;SDS011;6177;52.402;9.800;2023-06-14T00:20:32;2.70;;;1.50;;
12228;SDS011;6177;52.402;9.800;2023-06-14T00:23:24;1.45;;;1.30;;
12228;SDS011;6177;52.402;9.800;2023-06-14T00:26:15;1.85;;;1.75;;
12228;SDS011;6177;52.402;9.800;2023-06-14T00:29:07;2.22;;;2.13;;
12228;SDS011;6177;52.402;9.800;2023-06-14T00:31:58;2.95;;;1.60;;
12228;SDS011;6177;52.402;9.800;2023-06-14T00:34:51;1.85;;;1.83;;
12228;SDS011;6177;52.402;9.800;2023-06-14T00:37:41;3.08;;;2.10;;
12228;SDS011;6177;52.402;9.800;2023-06-14T00:40:32;2.00;;;1.90;;
12228;SDS011;6177;52.402;9.800;2023-06-14T00:43:24;2.45;;;2.33;;
12228;SDS011;6177;52.402;9.800;2023-06-14T00:46:16;2.28;;;2.10;;
12228;SDS011;6177;52.402;9.800;2023-06-14T00:49:07;1.88;;;1.77;;
12228;SDS011;6177;52.402;9.800;2023-06-14T00:51:57;3.42;;;1.80;;
12228;SDS011;6177;52.402;9.800;2023-06-14T00:54:48;2.40;;;2.20;;
12228;SDS011;6177;52.402;9.800;2023-06-14T00:57:39;1.70;;;1.60;;
12228;SDS011;6177;52.402;9.800;2023-06-14T01:00:31;2.05;;;1.95;;
12228;SDS011;6177;52.402;9.800;2023-06-14T01:03:22;2.75;;;1.85;;
12228;SDS011;6177;52.402;9.800;2023-06-14T01:09:26;10.15;;;2.08;;
12228;SDS011;6177;52.402;9.800;2023-06-14T01:15:11;2.35;;;2.00;;
12228;SDS011;6177;52.402;9.800;2023-06-14T01:18:03;4.10;;;1.95;;
12228;SDS011;6177;52.402;9.800;2023-06-14T01:20:55;2.75;;;1.95;;
12228;SDS011;6177;52.402;9.800;2023-06-14T01:23:49;2.78;;;1.77;;
12228;SDS011;6177;52.402;9.800;2023-06-14T01:26:45;1.63;;;1.55;;
12228;SDS011;6177;52.402;9.800;2023-06-14T01:29:37;3.85;;;1.52;;
12228;SDS011;6177;52.402;9.800;2023-06-14T01:32:29;2.20;;;2.10;;
12228;SDS011;6177;52.402;9.800;2023-06-14T01:35:19;1.60;;;1.60;;
12228;SDS011;6177;52.402;9.800;2023-06-14T01:38:10;2.75;;;1.95;;
12228;SDS011;6177;52.402;9.800;2023-06-14T01:41:03;3.15;;;1.70;;
12228;SDS011;6177;52.402;9.800;2023-06-14T01:43:53;1.90;;;1.75;;
12228;SDS011;6177;52.402;9.800;2023-06-14T01:46:44;2.28;;;2.17;;
12228;SDS011;6177;52.402;9.800;2023-06-14T01:49:35;1.98;;;1.63;;
12228;SDS011;6177;52.402;9.800;2023-06-14T01:52:25;2.05;;;1.90;;
12228;SDS011;6177;52.402;9.800;2023-06-14T01:55:16;2.65;;;1.90;;
12228;SDS011;6177;52.402;9.800;2023-06-14T01:58:08;2.10;;;2.00;;
12228;SDS011;6177;52.402;9.800;2023-06-14T02:00:59;2.13;;;2.03;;
12228;SDS011;6177;52.402;9.800;2023-06-14T02:03:52;2.17;;;1.67;;
12228;SDS011;6177;52.402;9.800;2023-06-14T02:06:44;2.38;;;1.60;;
12228;SDS011;6177;52.402;9.800;2023-06-14T02:09:35;1.90;;;1.77;;
12228;SDS011;6177;52.402;9.800;2023-06-14T02:12:26;2.10;;;1.90;;
12228;SDS011;6177;52.402;9.800;2023-06-14T02:15:17;1.73;;;1.42;;
12228;SDS011;6177;52.402;9.800;2023-06-14T02:18:09;2.03;;;1.83;;
12228;SDS011;6177;52.402;9.800;2023-06-14T02:21:00;3.05;;;1.80;;
12228;SDS011;6177;52.402;9.800;2023-06-14T02:23:51;1.88;;;1.77;;
12228;SDS011;6177;52.402;9.800;2023-06-14T02:26:42;1.60;;;1.60;;
12228;SDS011;6177;52.402;9.800;2023-06-14T02:29:33;2.30;;;1.67;;
12228;SDS011;6177;52.402;9.800;2023-06-14T02:32:25;1.90;;;1.70;;
12228;SDS011;6177;52.402;9.800;2023-06-14T02:35:18;2.10;;;2.00;;
12228;SDS011;6177;52.402;9.800;2023-06-14T02:38:09;2.42;;;1.85;;
12228;SDS011;6177;52.402;9.800;2023-06-14T02:41:00;2.28;;;2.00;;
12228;SDS011;6177;52.402;9.800;2023-06-14T02:43:52;2.00;;;1.63;;
12228;SDS011;6177;52.402;9.800;2023-06-14T02:46:44;1.73;;;1.63;;
12228;SDS011;6177;52.402;9.800;2023-06-14T02:49:36;2.08;;;1.90;;
12228;SDS011;6177;52.402;9.800;2023-06-14T02:52:27;2.25;;;1.75;;
12228;SDS011;6177;52.402;9.800;2023-06-14T02:55:18;2.10;;;2.00;;
12228;SDS011;6177;52.402;9.800;2023-06-14T02:58:09;2.38;;;2.15;;
12228;SDS011;6177;52.402;9.800;2023-06-14T03:01:00;1.80;;;1.70;;
12228;SDS011;6177;52.402;9.800;2023-06-14T03:03:55;3.00;;;2.08;;
12228;SDS011;6177;52.402;9.800;2023-06-14T03:06:46;1.98;;;1.83;;
12228;SDS011;6177;52.402;9.800;2023-06-14T03:09:42;2.15;;;2.05;;
12228;SDS011;6177;52.402;9.800;2023-06-14T03:12:35;1.75;;;1.67;;
12228;SDS011;6177;52.402;9.800;2023-06-14T03:15:27;2.35;;;2.15;;
12228;SDS011;6177;52.402;9.800;2023-06-14T03:18:18;3.80;;;1.90;;
12228;SDS011;6177;52.402;9.800;2023-06-14T03:21:09;2.53;;;2.17;;
12228;SDS011;6177;52.402;9.800;2023-06-14T03:24:04;2.13;;;1.95;;
12228;SDS011;6177;52.402;9.800;2023-06-14T03:26:56;1.52;;;1.52;;
12228;SDS011;6177;52.402;9.800;2023-06-14T03:29:47;2.00;;;1.63;;
12228;SDS011;6177;52.402;9.800;2023-06-14T03:32:39;1.92;;;1.92;;
12228;SDS011;6177;52.402;9.800;2023-06-14T03:35:31;2.78;;;1.90;;
12228;SDS011;6177;52.402;9.800;2023-06-14T03:38:22;2.75;;;1.65;;
12228;SDS011;6177;52.402;9.800;2023-06-14T03:41:13;1.90;;;1.80;;
12228;SDS011;6177;52.402;9.800;2023-06-14T03:44:04;2.28;;;2.00;;
12228;SDS011;6177;52.402;9.800;2023-06-14T03:46:55;3.13;;;1.92;;
12228;SDS011;6177;52.402;9.800;2023-06-14T03:49:47;2.22;;;1.90;;
12228;SDS011;6177;52.402;9.800;2023-06-14T03:52:38;3.03;;;1.95;;
12228;SDS011;6177;52.402;9.800;2023-06-14T03:55:29;1.95;;;1.73;;
12228;SDS011;6177;52.402;9.800;2023-06-14T03:58:22;3.50;;;2.10;;
12228;SDS011;6177;52.402;9.800;2023-06-14T04:01:14;2.00;;;1.90;;
12228;SDS011;6177;52.402;9.800;2023-06-14T04:04:05;2.50;;;1.88;;
12228;SDS011;6177;52.402;9.800;2023-06-14T04:06:56;2.28;;;2.17;;
12228;SDS011;6177;52.402;9.800;2023-06-14T04:09:49;5.18;;;2.53;;
12228;SDS011;6177;52.402;9.800;2023-06-14T04:12:40;1.95;;;1.60;;
12228;SDS011;6177;52.402;9.800;2023-06-14T04:15:31;2.08;;;1.80;;
12228;SDS011;6177;52.402;9.800;2023-06-14T04:18:24;2.10;;;2.00;;
12228;SDS011;6177;52.402;9.800;2023-06-14T04:21:15;1.85;;;1.83;;
12228;SDS011;6177;52.402;9.800;2023-06-14T04:24:05;2.15;;;2.05;;
12228;SDS011;6177;52.402;9.800;2023-06-14T04:26:58;2.20;;;2.10;;
12228;SDS011;6177;52.402;9.800;2023-06-14T04:29:48;2.15;;;1.85;;
12228;SDS011;6177;52.402;9.800;2023-06-14T04:32:39;4.95;;;2.00;;
12228;SDS011;6177;52.402;9.800;2023-06-14T04:35:32;1.85;;;1.70;;
12228;SDS011;6177;52.402;9.800;2023-06-14T04:38:23;1.98;;;1.70;;
12228;SDS011;6177;52.402;9.800;2023-06-14T04:41:17;2.05;;;1.95;;
12228;SDS011;6177;52.402;9.800;2023-06-14T04:44:09;2.47;;;2.10;;
12228;SDS011;6177;52.402;9.800;2023-06-14T04:47:05;1.90;;;1.80;;
12228;SDS011;6177;52.402;9.800;2023-06-14T04:49:57;2.05;;;1.95;;
12228;SDS011;6177;52.402;9.800;2023-06-14T04:52:48;4.75;;;2.03;;
12228;SDS011;6177;52.402;9.800;2023-06-14T04:55:41;1.60;;;1.60;;
12228;SDS011;6177;52.402;9.800;2023-06-14T04:58:36;3.15;;;1.95;;
12228;SDS011;6177;52.402;9.800;2023-06-14T05:01:27;2.92;;;1.67;;
12228;SDS011;6177;52.402;9.800;2023-06-14T05:04:18;2.17;;;1.67;;
12228;SDS011;6177;52.402;9.800;2023-06-14T05:07:08;2.10;;;2.00;;
12228;SDS011;6177;52.402;9.800;2023-06-14T05:10:00;2.20;;;1.83;;
12228;SDS011;6177;52.402;9.800;2023-06-14T05:12:51;2.27;;;1.87;;
12228;SDS011;6177;52.402;9.800;2023-06-14T05:15:44;2.73;;;1.60;;
12228;SDS011;6177;52.402;9.800;2023-06-14T05:18:35;1.98;;;1.70;;
12228;SDS011;6177;52.402;9.800;2023-06-14T05:21:26;1.95;;;1.67;;
12228;SDS011;6177;52.402;9.800;2023-06-14T05:24:17;2.28;;;2.05;;
12228;SDS011;6177;52.402;9.800;2023-06-14T05:27:08;1.80;;;1.67;;
12228;SDS011;6177;52.402;9.800;2023-06-14T05:29:59;2.67;;;1.70;;
12228;SDS011;6177;52.402;9.800;2023-06-14T05:32:49;1.67;;;1.60;;
12228;SDS011;6177;52.402;9.800;2023-06-14T05:35:41;3.22;;;1.50;;
12228;SDS011;6177;52.402;9.800;2023-06-14T05:38:32;2.90;;;1.88;;
12228;SDS011;6177;52.402;9.800;2023-06-14T05:41:26;2.75;;;1.20;;
12228;SDS011;6177;52.402;9.800;2023-06-14T05:44:16;1.67;;;1.60;;
12228;SDS011;6177;52.402;9.800;2023-06-14T05:47:07;5.72;;;2.00;;
12228;SDS011;6177;52.402;9.800;2023-06-14T05:49:58;1.95;;;1.60;;
12228;SDS011;6177;52.402;9.800;2023-06-14T05:52:49;1.20;;;1.13;;
12228;SDS011;6177;52.402;9.800;2023-06-14T05:55:40;1.85;;;1.75;;
12228;SDS011;6177;52.402;9.800;2023-06-14T05:58:31;1.60;;;1.60;;
12228;SDS011;6177;52.402;9.800;2023-06-14T06:01:21;2.10;;;1.80;;
12228;SDS011;6177;52.402;9.800;2023-06-14T06:04:12;3.03;;;1.60;;
12228;SDS011;6177;52.402;9.800;2023-06-14T06:07:03;2.28;;;1.67;;
12228;SDS011;6177;52.402;9.800;2023-06-14T06:09:54;1.63;;;1.50;;
12228;SDS011;6177;52.402;9.800;2023-06-14T06:12:45;2.33;;;1.63;;
12228;SDS011;6177;52.402;9.800;2023-06-14T06:15:38;3.13;;;1.80;;
12228;SDS011;6177;52.402;9.800;2023-06-14T06:18:29;1.38;;;1.38;;
12228;SDS011;6177;52.402;9.800;2023-06-14T06:21:20;1.52;;;1.52;;
12228;SDS011;6177;52.402;9.800;2023-06-14T06:24:11;1.50;;;1.40;;
12228;SDS011;6177;52.402;9.800;2023-06-14T06:27:01;5.75;;;1.55;;
12228;SDS011;6177;52.402;9.800;2023-06-14T06:29:52;3.65;;;1.60;;
12228;SDS011;6177;52.402;9.800;2023-06-14T06:32:43;1.58;;;1.42;;
12228;SDS011;6177;52.402;9.800;2023-06-14T06:35:34;3.53;;;1.52;;
12228;SDS011;6177;52.402;9.800;2023-06-14T06:38:25;2.25;;;1.83;;
12228;SDS011;6177;52.402;9.800;2023-06-14T06:41:16;1.80;;;1.70;;
12228;SDS011;6177;52.402;9.800;2023-06-14T06:44:06;1.63;;;1.60;;
12228;SDS011;6177;52.402;9.800;2023-06-14T06:46:57;1.60;;;1.50;;
12228;SDS011;6177;52.402;9.800;2023-06-14T06:49:48;1.55;;;1.52;;
12228;SDS011;6177;52.402;9.800;2023-06-14T06:52:39;2.17;;;1.50;;
12228;SDS011;6177;52.402;9.800;2023-06-14T06:55:30;1.85;;;1.30;;
12228;SDS011;6177;52.402;9.800;2023-06-14T06:58:19;1.35;;;1.20;;
12228;SDS011;6177;52.402;9.800;2023-06-14T07:01:12;1.95;;;1.58;;
12228;SDS011;6177;52.402;9.800;2023-06-14T07:04:03;2.17;;;1.60;;
12228;SDS011;6177;52.402;9.800;2023-06-14T07:06:54;2.00;;;1.67;;
12228;SDS011;6177;52.402;9.800;2023-06-14T07:09:45;1.27;;;1.13;;
12228;SDS011;6177;52.402;9.800;2023-06-14T07:12:36;1.58;;;1.40;;
12228;SDS011;6177;52.402;9.800;2023-06-14T07:15:29;1.65;;;1.55;;
12228;SDS011;6177;52.402;9.800;2023-06-14T07:18:20;1.40;;;1.40;;
12228;SDS011;6177;52.402;9.800;2023-06-14T07:21:11;1.67;;;1.60;;
12228;SDS011;6177;52.402;9.800;2023-06-14T07:24:02;1.52;;;1.30;;
12228;SDS011;6177;52.402;9.800;2023-06-14T07:26:53;4.10;;;1.33;;
12228;SDS011;6177;52.402;9.800;2023-06-14T07:29:43;1.50;;;1.20;;
12228;SDS011;6177;52.402;9.800;2023-06-14T07:32:34;1.52;;;1.20;;
12228;SDS011;6177;52.402;9.800;2023-06-14T07:35:25;1.60;;;1.50;;
12228;SDS011;6177;52.402;9.800;2023-06-14T07:38:15;1.30;;;1.30;;
12228;SDS011;6177;52.402;9.800;2023-06-14T07:41:06;1.30;;;1.30;;
12228;SDS011;6177;52.402;9.800;2023-06-14T07:43:57;1.30;;;1.30;;
12228;SDS011;6177;52.402;9.800;2023-06-14T07:46:48;1.20;;;1.20;;
12228;SDS011;6177;52.402;9.800;2023-06-14T07:49:39;1.73;;;1.30;;
12228;SDS011;6177;52.402;9.800;2023-06-14T07:52:30;1.65;;;1.55;;
12228;SDS011;6177;52.402;9.800;2023-06-14T07:55:21;1.83;;;1.73;;
12228;SDS011;6177;52.402;9.800;2023-06-14T07:58:11;1.50;;;1.40;;
12228;SDS011;6177;52.402;9.800;2023-06-14T08:01:02;2.28;;;1.45;;
12228;SDS011;6177;52.402;9.800;2023-06-14T08:03:56;1.65;;;1.40;;
12228;SDS011;6177;52.402;9.800;2023-06-14T08:06:47;1.10;;;1.10;;
12228;SDS011;6177;52.402;9.800;2023-06-14T08:09:38;1.30;;;1.30;;
12228;SDS011;6177;52.402;9.800;2023-06-14T08:12:29;1.27;;;1.27;;
12228;SDS011;6177;52.402;9.800;2023-06-14T08:15:20;1.85;;;1.75;;
12228;SDS011;6177;52.402;9.800;2023-06-14T08:18:11;1.55;;;1.45;;
12228;SDS011;6177;52.402;9.800;2023-06-14T08:21:02;1.17;;;1.17;;
12228;SDS011;6177;52.402;9.800;2023-06-14T08:23:53;2.10;;;1.92;;
12228;SDS011;6177;52.402;9.800;2023-06-14T08:26:44;1.50;;;1.20;;
12228;SDS011;6177;52.402;9.800;2023-06-14T08:29:35;1.35;;;1.35;;
12228;SDS011;6177;52.402;9.800;2023-06-14T08:32:26;1.73;;;1.70;;
12228;SDS011;6177;52.402;9.800;2023-06-14T08:35:17;2.42;;;1.60;;
12228;SDS011;6177;52.402;9.800;2023-06-14T08:38:08;2.25;;;1.50;;
12228;SDS011;6177;52.402;9.800;2023-06-14T08:41:01;1.65;;;1.52;;
12228;SDS011;6177;52.402;9.800;2023-06-14T08:43:53;1.27;;;1.27;;
12228;SDS011;6177;52.402;9.800;2023-06-14T08:46:44;1.45;;;1.45;;
12228;SDS011;6177;52.402;9.800;2023-06-14T08:49:36;2.85;;;1.38;;
12228;SDS011;6177;52.402;9.800;2023-06-14T08:52:28;1.75;;;1.58;;
12228;SDS011;6177;52.402;9.800;2023-06-14T08:55:20;2.53;;;1.63;;
12228;SDS011;6177;52.402;9.800;2023-06-14T08:58:16;1.75;;;1.60;;
12228;SDS011;6177;52.402;9.800;2023-06-14T09:01:08;1.60;;;1.50;;
12228;SDS011;6177;52.402;9.800;2023-06-14T09:03:59;1.67;;;1.30;;
12228;SDS011;6177;52.402;9.800;2023-06-14T09:06:50;1.33;;;1.33;;
12228;SDS011;6177;52.402;9.800;2023-06-14T09:09:43;1.38;;;1.33;;
12228;SDS011;6177;52.402;9.800;2023-06-14T09:12:34;1.40;;;1.30;;
12228;SDS011;6177;52.402;9.800;2023-06-14T09:15:25;4.05;;;1.38;;
12228;SDS011;6177;52.402;9.800;2023-06-14T09:18:16;2.38;;;1.40;;
12228;SDS011;6177;52.402;9.800;2023-06-14T09:21:07;1.75;;;1.20;;
12228;SDS011;6177;52.402;9.800;2023-06-14T09:23:58;1.98;;;1.88;;
12228;SDS011;6177;52.402;9.800;2023-06-14T09:26:52;1.55;;;1.45;;
12228;SDS011;6177;52.402;9.800;2023-06-14T09:29:43;1.60;;;1.50;;
12228;SDS011;6177;52.402;9.800;2023-06-14T09:32:37;1.38;;;1.27;;
12228;SDS011;6177;52.402;9.800;2023-06-14T09:35:33;1.10;;;1.10;;
12228;SDS011;6177;52.402;9.800;2023-06-14T09:38:24;1.63;;;1.52;;
12228;SDS011;6177;52.402;9.800;2023-06-14T09:41:15;3.00;;;1.88;;
12228;SDS011;6177;52.402;9.800;2023-06-14T09:44:06;2.45;;;1.42;;
12228;SDS011;6177;52.402;9.800;2023-06-14T09:46:58;4.75;;;1.73;;
12228;SDS011;6177;52.402;9.800;2023-06-14T09:49:48;0.98;;;0.98;;
12228;SDS011;6177;52.402;9.800;2023-06-14T09:52:39;2.03;;;1.60;;
12228;SDS011;6177;52.402;9.800;2023-06-14T09:55:30;6.20;;;1.88;;
12228;SDS011;6177;52.402;9.800;2023-06-14T09:58:21;3.97;;;1.77;;
12228;SDS011;6177;52.402;9.800;2023-06-14T10:01:13;6.03;;;1.90;;
12228;SDS011;6177;52.402;9.800;2023-06-14T10:04:04;1.88;;;1.52;;
12228;SDS011;6177;52.402;9.800;2023-06-14T10:06:56;1.30;;;1.30;;
12228;SDS011;6177;52.402;9.800;2023-06-14T10:09:47;1.83;;;1.83;;
12228;SDS011;6177;52.402;9.800;2023-06-14T10:12:40;1.50;;;1.50;;
12228;SDS011;6177;52.402;9.800;2023-06-14T10:22:09;1.73;;;1.70;;
12228;SDS011;6177;52.402;9.800;2023-06-14T10:25:06;3.30;;;1.67;;
12228;SDS011;6177;52.402;9.800;2023-06-14T10:28:02;2.03;;;1.80;;
12228;SDS011;6177;52.402;9.800;2023-06-14T10:31:03;1.50;;;1.50;;
12228;SDS011;6177;52.402;9.800;2023-06-14T10:33:57;2.58;;;1.95;;
12228;SDS011;6177;52.402;9.800;2023-06-14T10:36:50;2.05;;;1.88;;
12228;SDS011;6177;52.402;9.800;2023-06-14T10:39:51;2.72;;;1.83;;
12228;SDS011;6177;52.402;9.800;2023-06-14T10:42:50;2.63;;;1.75;;
12228;SDS011;6177;52.402;9.800;2023-06-14T10:46:10;2.95;;;1.73;;
12228;SDS011;6177;52.402;9.800;2023-06-14T10:49:06;2.85;;;1.90;;
12228;SDS011;6177;52.402;9.800;2023-06-14T10:51:57;3.92;;;2.10;;
12228;SDS011;6177;52.402;9.800;2023-06-14T10:55:08;3.90;;;1.90;;
12228;SDS011;6177;52.402;9.800;2023-06-14T10:58:05;3.33;;;1.83;;
12228;SDS011;6177;52.402;9.800;2023-06-14T11:00:56;2.00;;;1.88;;
12228;SDS011;6177;52.402;9.800;2023-06-14T11:03:50;2.20;;;2.05;;
12228;SDS011;6177;52.402;9.800;2023-06-14T11:06:48;1.55;;;1.55;;
12228;SDS011;6177;52.402;9.800;2023-06-14T11:09:47;2.10;;;1.80;;
12228;SDS011;6177;52.402;9.800;2023-06-14T11:12:47;4.43;;;2.15;;
12228;SDS011;6177;52.402;9.800;2023-06-14T11:15:38;2.58;;;2.30;;
12228;SDS011;6177;52.402;9.800;2023-06-14T11:18:29;2.47;;;2.20;;
12228;SDS011;6177;52.402;9.800;2023-06-14T11:21:20;2.17;;;1.95;;
12228;SDS011;6177;52.402;9.800;2023-06-14T11:24:11;2.42;;;2.33;;
12228;SDS011;6177;52.402;9.800;2023-06-14T11:27:02;2.38;;;1.90;;
12228;SDS011;6177;52.402;9.800;2023-06-14T11:29:53;4.20;;;1.83;;
12228;SDS011;6177;52.402;9.800;2023-06-14T11:32:51;2.35;;;2.10;;
12228;SDS011;6177;52.402;9.800;2023-06-14T11:35:43;2.83;;;1.95;;
12228;SDS011;6177;52.402;9.800;2023-06-14T11:38:37;3.58;;;1.73;;
12228;SDS011;6177;52.402;9.800;2023-06-14T11:41:44;2.20;;;2.10;;
12228;SDS011;6177;52.402;9.800;2023-06-14T11:44:35;2.85;;;2.17;;
12228;SDS011;6177;52.402;9.800;2023-06-14T11:47:31;2.05;;;1.95;;
12228;SDS011;6177;52.402;9.800;2023-06-14T11:50:25;3.22;;;2.15;;
12228;SDS011;6177;52.402;9.800;2023-06-14T11:53:17;2.28;;;2.08;;
12228;SDS011;6177;52.402;9.800;2023-06-14T11:56:08;2.22;;;2.13;;
12228;SDS011;6177;52.402;9.800;2023-06-14T11:58:59;2.67;;;2.28;;
12228;SDS011;6177;52.402;9.800;2023-06-14T12:01:50;2.28;;;2.08;;
12228;SDS011;6177;52.402;9.800;2023-06-14T12:04:46;4.72;;;2.50;;
12228;SDS011;6177;52.402;9.800;2023-06-14T12:07:37;2.10;;;1.80;;
12228;SDS011;6177;52.402;9.800;2023-06-14T12:10:30;2.63;;;2.30;;
12228;SDS011;6177;52.402;9.800;2023-06-14T12:13:30;2.13;;;2.03;;
12228;SDS011;6177;52.402;9.800;2023-06-14T12:16:21;2.22;;;2.00;;
12228;SDS011;6177;52.402;9.800;2023-06-14T12:19:13;2.55;;;2.17;;
12228;SDS011;6177;52.402;9.800;2023-06-14T12:22:04;1.95;;;1.83;;
12228;SDS011;6177;52.402;9.800;2023-06-14T12:24:55;3.92;;;2.50;;
12228;SDS011;6177;52.402;9.800;2023-06-14T12:27:46;2.85;;;2.15;;
12228;SDS011;6177;52.402;9.800;2023-06-14T12:30:37;3.85;;;2.50;;
12228;SDS011;6177;52.402;9.800;2023-06-14T12:33:28;3.53;;;2.72;;
12228;SDS011;6177;52.402;9.800;2023-06-14T12:36:19;2.92;;;2.53;;
12228;SDS011;6177;52.402;9.800;2023-06-14T12:39:10;6.22;;;2.50;;
12228;SDS011;6177;52.402;9.800;2023-06-14T12:42:01;2.28;;;2.08;;
12228;SDS011;6177;52.402;9.800;2023-06-14T12:44:54;4.85;;;2.50;;
12228;SDS011;6177;52.402;9.800;2023-06-14T12:47:45;2.38;;;2.22;;
12228;SDS011;6177;52.402;9.800;2023-06-14T12:50:36;2.50;;;2.40;;
12228;SDS011;6177;52.402;9.800;2023-06-14T12:53:27;2.60;;;2.40;;
12228;SDS011;6177;52.402;9.800;2023-06-14T12:56:18;4.85;;;2.85;;
12228;SDS011;6177;52.402;9.800;2023-06-14T12:59:09;3.40;;;2.78;;
12228;SDS011;6177;52.402;9.800;2023-06-14T13:02:14;3.45;;;2.25;;
12228;SDS011;6177;52.402;9.800;2023-06-14T13:05:06;1.80;;;1.80;;
12228;SDS011;6177;52.402;9.800;2023-06-14T13:07:57;2.13;;;1.98;;
12228;SDS011;6177;52.402;9.800;2023-06-14T13:10:48;2.95;;;2.28;;
12228;SDS011;6177;52.402;9.800;2023-06-14T13:13:39;2.55;;;2.35;;
12228;SDS011;6177;52.402;9.800;2023-06-14T13:16:30;2.20;;;2.10;;
12228;SDS011;6177;52.402;9.800;2023-06-14T13:19:21;3.63;;;2.05;;
12228;SDS011;6177;52.402;9.800;2023-06-14T13:22:12;2.58;;;2.30;;
12228;SDS011;6177;52.402;9.800;2023-06-14T13:25:03;4.18;;;2.20;;
12228;SDS011;6177;52.402;9.800;2023-06-14T13:27:55;8.45;;;2.50;;
12228;SDS011;6177;52.402;9.800;2023-06-14T13:30:46;5.72;;;2.67;;
12228;SDS011;6177;52.402;9.800;2023-06-14T13:33:37;4.13;;;2.53;;
12228;SDS011;6177;52.402;9.800;2023-06-14T13:36:28;9.73;;;2.70;;
12228;SDS011;6177;52.402;9.800;2023-06-14T13:39:20;4.10;;;2.38;;
12228;SDS011;6177;52.402;9.800;2023-06-14T13:42:11;5.35;;;2.50;;
12228;SDS011;6177;52.402;9.800;2023-06-14T13:45:02;4.15;;;2.70;;
12228;SDS011;6177;52.402;9.800;2023-06-14T13:47:54;5.13;;;2.95;;
12228;SDS011;6177;52.402;9.800;2023-06-14T13:50:45;2.45;;;2.22;;
12228;SDS011;6177;52.402;9.800;2023-06-14T13:53:36;3.15;;;2.10;;
12228;SDS011;6177;52.402;9.800;2023-06-14T13:56:26;3.88;;;2.22;;
12228;SDS011;6177;52.402;9.800;2023-06-14T13:59:18;2.50;;;2.40;;
12228;SDS011;6177;52.402;9.800;2023-06-14T14:02:09;3.88;;;2.72;;
12228;SDS011;6177;52.402;9.800;2023-06-14T14:05:01;5.30;;;2.40;;
12228;SDS011;6177;52.402;9.800;2023-06-14T14:07:52;4.03;;;2.75;;
12228;SDS011;6177;52.402;9.800;2023-06-14T14:10:43;3.78;;;2.40;;
12228;SDS011;6177;52.402;9.800;2023-06-14T14:13:34;2.67;;;2.58;;
12228;SDS011;6177;52.402;9.800;2023-06-14T14:16:30;3.67;;;2.40;;
12228;SDS011;6177;52.402;9.800;2023-06-14T14:19:21;3.35;;;2.60;;
12228;SDS011;6177;52.402;9.800;2023-06-14T14:22:12;4.63;;;2.33;;
12228;SDS011;6177;52.402;9.800;2023-06-14T14:25:03;4.65;;;2.33;;
12228;SDS011;6177;52.402;9.800;2023-06-14T14:27:54;4.82;;;2.13;;
12228;SDS011;6177;52.402;9.800;2023-06-14T14:30:45;2.10;;;1.90;;
12228;SDS011;6177;52.402;9.800;2023-06-14T14:33:37;3.83;;;2.38;;
12228;SDS011;6177;52.402;9.800;2023-06-14T14:36:28;2.45;;;2.25;;
12228;SDS011;6177;52.402;9.800;2023-06-14T14:39:19;3.58;;;2.45;;
12228;SDS011;6177;52.402;9.800;2023-06-14T14:42:10;4.75;;;3.03;;
12228;SDS011;6177;52.402;9.800;2023-06-14T14:45:02;4.53;;;2.40;;
12228;SDS011;6177;52.402;9.800;2023-06-14T14:47:53;4.07;;;2.67;;
12228;SDS011;6177;52.402;9.800;2023-06-14T14:50:44;5.00;;;2.90;;
12228;SDS011;6177;52.402;9.800;2023-06-14T14:53:35;8.98;;;3.10;;
12228;SDS011;6177;52.402;9.800;2023-06-14T14:56:26;5.60;;;2.80;;
12228;SDS011;6177;52.402;9.800;2023-06-14T14:59:17;4.43;;;2.65;;
12228;SDS011;6177;52.402;9.800;2023-06-14T15:02:09;2.90;;;2.70;;
12228;SDS011;6177;52.402;9.800;2023-06-14T15:05:00;2.65;;;2.55;;
12228;SDS011;6177;52.402;9.800;2023-06-14T15:07:52;2.72;;;2.60;;
12228;SDS011;6177;52.402;9.800;2023-06-14T15:10:43;2.80;;;2.50;;
12228;SDS011;6177;52.402;9.800;2023-06-14T15:13:35;2.95;;;2.17;;
12228;SDS011;6177;52.402;9.800;2023-06-14T15:16:25;2.75;;;2.63;;
12228;SDS011;6177;52.402;9.800;2023-06-14T15:19:17;3.03;;;2.08;;
12228;SDS011;6177;52.402;9.800;2023-06-14T15:22:08;3.15;;;2.30;;
12228;SDS011;6177;52.402;9.800;2023-06-14T15:24:59;2.85;;;2.30;;
12228;SDS011;6177;52.402;9.800;2023-06-14T15:27:50;3.22;;;2.47;;
12228;SDS011;6177;52.402;9.800;2023-06-14T15:30:40;3.08;;;2.85;;
12228;SDS011;6177;52.402;9.800;2023-06-14T15:33:31;2.40;;;2.20;;
12228;SDS011;6177;52.402;9.800;2023-06-14T15:36:22;3.83;;;2.50;;
12228;SDS011;6177;52.402;9.800;2023-06-14T15:39:13;3.25;;;2.20;;
12228;SDS011;6177;52.402;9.800;2023-06-14T15:42:04;3.25;;;2.40;;
12228;SDS011;6177;52.402;9.800;2023-06-14T15:44:56;3.20;;;2.83;;
12228;SDS011;6177;52.402;9.800;2023-06-14T15:47:46;3.40;;;2.63;;
12228;SDS011;6177;52.402;9.800;2023-06-14T15:50:37;4.97;;;3.20;;
12228;SDS011;6177;52.402;9.800;2023-06-14T15:53:28;3.60;;;2.58;;
12228;SDS011;6177;52.402;9.800;2023-06-14T15:56:19;3.05;;;2.85;;
12228;SDS011;6177;52.402;9.800;2023-06-14T15:59:10;4.68;;;2.30;;
12228;SDS011;6177;52.402;9.800;2023-06-14T16:02:01;3.53;;;2.80;;
12228;SDS011;6177;52.402;9.800;2023-06-14T16:04:52;4.95;;;2.63;;
12228;SDS011;6177;52.402;9.800;2023-06-14T16:07:43;5.22;;;2.85;;
12228;SDS011;6177;52.402;9.800;2023-06-14T16:10:34;3.17;;;2.67;;
12228;SDS011;6177;52.402;9.800;2023-06-14T16:13:26;5.22;;;3.00;;
12228;SDS011;6177;52.402;9.800;2023-06-14T16:16:17;4.30;;;2.90;;
12228;SDS011;6177;52.402;9.800;2023-06-14T16:19:08;3.13;;;2.47;;
12228;SDS011;6177;52.402;9.800;2023-06-14T16:21:59;3.28;;;2.75;;
12228;SDS011;6177;52.402;9.800;2023-06-14T16:24:50;3.08;;;2.60;;
12228;SDS011;6177;52.402;9.800;2023-06-14T16:27:41;6.20;;;5.07;;
12228;SDS011;6177;52.402;9.800;2023-06-14T16:30:32;2.97;;;2.75;;
12228;SDS011;6177;52.402;9.800;2023-06-14T16:33:23;4.25;;;2.55;;
12228;SDS011;6177;52.402;9.800;2023-06-14T16:36:14;4.35;;;2.80;;
12228;SDS011;6177;52.402;9.800;2023-06-14T16:39:05;2.95;;;2.80;;
12228;SDS011;6177;52.402;9.800;2023-06-14T16:41:56;4.68;;;2.28;;
12228;SDS011;6177;52.402;9.800;2023-06-14T16:44:47;4.50;;;2.58;;
12228;SDS011;6177;52.402;9.800;2023-06-14T16:47:38;3.35;;;2.80;;
12228;SDS011;6177;52.402;9.800;2023-06-14T16:50:29;3.47;;;3.08;;
12228;SDS011;6177;52.402;9.800;2023-06-14T16:53:20;3.88;;;2.75;;
12228;SDS011;6177;52.402;9.800;2023-06-14T16:56:11;3.63;;;2.90;;
12228;SDS011;6177;52.402;9.800;2023-06-14T16:59:02;3.90;;;2.85;;
12228;SDS011;6177;52.402;9.800;2023-06-14T17:01:58;4.28;;;2.60;;
12228;SDS011;6177;52.402;9.800;2023-06-14T17:04:51;6.53;;;2.88;;
12228;SDS011;6177;52.402;9.800;2023-06-14T17:07:41;2.80;;;2.70;;
12228;SDS011;6177;52.402;9.800;2023-06-14T17:10:32;2.63;;;2.42;;
12228;SDS011;6177;52.402;9.800;2023-06-14T17:13:23;3.75;;;2.42;;
12228;SDS011;6177;52.402;9.800;2023-06-14T17:16:14;3.20;;;3.00;;
12228;SDS011;6177;52.402;9.800;2023-06-14T17:19:06;3.30;;;2.33;;
12228;SDS011;6177;52.402;9.800;2023-06-14T17:21:56;3.80;;;2.88;;
12228;SDS011;6177;52.402;9.800;2023-06-14T17:24:48;3.08;;;2.42;;
12228;SDS011;6177;52.402;9.800;2023-06-14T17:27:39;3.47;;;2.20;;
12228;SDS011;6177;52.402;9.800;2023-06-14T17:30:30;2.70;;;2.50;;
12228;SDS011;6177;52.402;9.800;2023-06-14T17:33:21;2.78;;;2.55;;
12228;SDS011;6177;52.402;9.800;2023-06-14T17:36:12;3.80;;;2.80;;
12228;SDS011;6177;52.402;9.800;2023-06-14T17:39:03;2.47;;;2.17;;
12228;SDS011;6177;52.402;9.800;2023-06-14T17:41:54;2.70;;;2.58;;